createdAt,value
2022-11-05T00:02:12.822Z,75.78
2022-11-05T00:04:39.458Z,76.79
2022-11-05T00:07:30.546Z,75.60
2022-11-05T00:10:01.877Z,74.74
2022-11-05T00:12:28.493Z,74.75
2022-11-05T00:14:55.099Z,75.38
2022-11-05T00:17:21.726Z,75.12
2022-11-05T00:19:48.411Z,76.18
2022-11-05T00:22:15.010Z,76.88
2022-11-05T00:24:41.621Z,77.67
2022-11-05T00:27:08.302Z,76.90
2022-11-05T00:29:34.917Z,78.16
2022-11-05T00:32:01.725Z,78.12
2022-11-05T00:34:28.344Z,76.14
2022-11-05T00:36:55.536Z,76.66
2022-11-05T00:39:22.134Z,76.91
2022-11-05T00:41:48.749Z,74.81
2022-11-05T00:44:15.355Z,75.65
2022-11-05T00:46:44.097Z,75.65
2022-11-05T00:49:10.715Z,76.27
2022-11-05T00:51:37.330Z,75.86
2022-11-05T00:54:03.978Z,77.36
2022-11-05T00:56:30.598Z,76.94
2022-11-05T00:58:57.210Z,75.25
2022-11-05T01:01:23.905Z,75.64
2022-11-05T01:03:51.989Z,76.41
2022-11-05T01:06:18.931Z,75.44
2022-11-05T01:08:45.687Z,75.74
2022-11-05T01:11:17.310Z,75.88
2022-11-05T01:13:43.924Z,76.32
2022-11-05T01:16:10.541Z,75.18
2022-11-05T01:18:37.875Z,75.79
2022-11-05T01:21:12.422Z,76.16
2022-11-05T01:23:39.044Z,77.07
2022-11-05T01:26:05.722Z,76.23
2022-11-05T01:28:32.518Z,76.61
2022-11-05T01:30:59.174Z,77.01
2022-11-05T01:33:25.790Z,76.86
2022-11-05T01:35:52.406Z,76.32
2022-11-05T01:38:19.030Z,76.71
2022-11-05T01:40:45.652Z,76.18
2022-11-05T01:43:20.309Z,76.00
2022-11-05T01:45:49.365Z,76.37
2022-11-05T01:48:18.221Z,76.61
2022-11-05T01:50:59.305Z,76.00
2022-11-05T01:53:27.447Z,76.31
2022-11-05T01:56:18.425Z,75.67
2022-11-05T01:58:46.328Z,74.88
2022-11-05T02:01:12.933Z,74.80
2022-11-05T02:03:39.547Z,75.97
2022-11-05T02:06:06.200Z,75.98
2022-11-05T02:08:51.583Z,78.22
2022-11-05T02:11:18.740Z,77.80
2022-11-05T02:13:45.740Z,76.83
2022-11-05T02:16:22.010Z,76.93
2022-11-05T02:19:21.030Z,77.01
2022-11-05T02:22:05.550Z,76.00
2022-11-05T02:25:00.946Z,75.69
2022-11-05T02:27:55.072Z,73.72
2022-11-05T02:30:47.676Z,74.07
2022-11-05T02:34:28.441Z,74.84
2022-11-05T02:37:20.299Z,75.87
2022-11-05T02:40:11.089Z,76.15
2022-11-05T02:42:43.962Z,75.33
2022-11-05T02:45:32.468Z,74.96
2022-11-05T02:48:03.455Z,75.12
2022-11-05T02:50:48.675Z,75.71
2022-11-05T02:53:31.582Z,75.59
2022-11-05T02:56:04.026Z,77.25
2022-11-05T02:58:30.660Z,75.99
2022-11-05T03:01:00.239Z,76.84
2022-11-05T03:03:37.442Z,76.06
2022-11-05T03:06:22.758Z,75.03
2022-11-05T03:08:52.145Z,73.26
2022-11-05T03:11:19.988Z,76.92
2022-11-05T03:13:46.481Z,75.34
2022-11-05T03:16:18.259Z,75.38
2022-11-05T03:19:15.580Z,76.38
2022-11-05T03:22:01.024Z,75.91
2022-11-05T03:24:32.434Z,77.50
2022-11-05T03:27:07.357Z,76.31
2022-11-05T03:29:36.589Z,76.50
2022-11-05T03:32:03.293Z,76.26
2022-11-05T03:34:32.020Z,77.94
2022-11-05T03:36:58.627Z,77.91
2022-11-05T03:39:45.979Z,78.47
2022-11-05T03:42:15.886Z,78.14
2022-11-05T03:44:45.221Z,78.08
2022-11-05T03:47:14.974Z,78.64
2022-11-05T03:49:47.840Z,78.69
2022-11-05T03:52:18.956Z,78.24
2022-11-05T03:54:45.884Z,78.64
2022-11-05T03:57:14.788Z,77.19
2022-11-05T03:59:45.649Z,74.92
2022-11-05T04:02:13.094Z,75.73
2022-11-05T04:04:39.818Z,75.81
2022-11-05T04:07:06.417Z,76.76
2022-11-05T04:09:33.033Z,75.78
2022-11-05T04:11:59.647Z,76.77
2022-11-05T04:14:26.262Z,75.30
2022-11-05T04:16:52.897Z,75.60
2022-11-05T04:19:23.748Z,76.11
2022-11-05T04:21:52.754Z,75.16
2022-11-05T04:24:19.370Z,75.04
2022-11-05T04:26:45.976Z,75.30
2022-11-05T04:29:12.627Z,75.50
2022-11-05T04:31:39.231Z,75.25
2022-11-05T04:34:05.920Z,76.66
2022-11-05T04:36:32.547Z,77.40
2022-11-05T04:38:59.162Z,76.90
2022-11-05T04:41:26.008Z,76.72
2022-11-05T04:43:52.613Z,77.07
2022-11-05T04:46:19.236Z,77.52
2022-11-05T04:48:45.857Z,77.15
2022-11-05T04:51:12.476Z,76.76
2022-11-05T04:53:39.087Z,77.29
2022-11-05T04:56:12.550Z,76.89
2022-11-05T04:58:40.485Z,77.99
2022-11-05T05:01:08.989Z,78.69
2022-11-05T05:03:35.650Z,77.52
2022-11-05T05:06:04.023Z,77.31
2022-11-05T05:08:30.938Z,78.34
2022-11-05T05:11:02.114Z,78.46
2022-11-05T05:13:28.728Z,78.14
2022-11-05T05:15:55.347Z,77.74
2022-11-05T05:18:21.959Z,77.88
2022-11-05T05:20:48.634Z,78.65
2022-11-05T05:23:15.251Z,77.51
2022-11-05T05:25:41.863Z,77.90
2022-11-05T05:28:08.465Z,78.12
2022-11-05T05:30:35.098Z,77.24
2022-11-05T05:33:02.731Z,78.43
2022-11-05T05:35:29.476Z,78.52
2022-11-05T05:37:56.155Z,78.50
2022-11-05T05:40:23.526Z,79.36
2022-11-05T05:42:54.753Z,79.02
2022-11-05T05:45:21.359Z,78.59
2022-11-05T05:47:47.981Z,77.86
2022-11-05T05:50:14.598Z,78.26
2022-11-05T05:52:41.216Z,78.12
2022-11-05T05:55:08.014Z,77.42
2022-11-05T05:57:34.631Z,78.37
2022-11-05T06:00:01.295Z,78.17
2022-11-05T06:02:30.441Z,79.61
2022-11-05T06:04:57.205Z,80.27
2022-11-05T06:07:23.809Z,79.98
2022-11-05T06:09:50.462Z,78.54
2022-11-05T06:12:17.078Z,79.56
2022-11-05T06:14:43.693Z,79.15
2022-11-05T06:17:10.301Z,78.88
2022-11-05T06:19:36.915Z,79.83
2022-11-05T06:22:03.539Z,80.00
2022-11-05T06:24:30.164Z,79.27
2022-11-05T06:26:56.806Z,79.98
2022-11-05T06:29:23.429Z,78.88
2022-11-05T06:31:50.042Z,78.47
2022-11-05T06:34:16.648Z,79.07
2022-11-05T06:36:43.256Z,79.65
2022-11-05T06:39:10.781Z,80.19
2022-11-05T06:41:56.952Z,78.60
2022-11-05T06:44:24.000Z,79.37
2022-11-05T06:46:50.614Z,78.17
2022-11-05T06:49:17.231Z,77.29
2022-11-05T06:51:43.842Z,77.27
2022-11-05T06:54:10.454Z,76.26
2022-11-05T06:56:37.052Z,76.35
2022-11-05T06:59:03.660Z,76.75
2022-11-05T07:01:30.399Z,75.34
2022-11-05T07:03:57.071Z,74.82
2022-11-05T07:06:23.695Z,73.17
2022-11-05T07:08:50.326Z,74.31
2022-11-05T07:11:18.163Z,75.39
2022-11-05T07:13:44.773Z,73.23
2022-11-05T07:16:11.647Z,74.14
2022-11-05T18:17:08.929Z,72.61
2022-11-05T18:19:35.551Z,71.72
2022-11-05T18:22:02.379Z,73.38
2022-11-05T18:24:28.991Z,73.41
2022-11-05T18:26:55.606Z,73.48
2022-11-05T18:29:22.226Z,70.76
2022-11-05T18:31:48.835Z,71.68
2022-11-05T18:34:15.453Z,72.41
2022-11-05T18:36:43.295Z,72.04
2022-11-05T18:39:09.916Z,73.24
2022-11-05T18:41:36.527Z,74.89
2022-11-05T18:44:03.237Z,73.67
2022-11-05T18:46:56.564Z,74.43
2022-11-05T18:49:17.144Z,73.19
2022-11-05T18:51:43.754Z,74.36
2022-11-05T18:54:10.396Z,74.87
2022-11-05T18:56:37.016Z,74.79
2022-11-05T18:59:34.740Z,74.89
2022-11-05T19:01:50.334Z,73.82
2022-11-05T19:04:17.018Z,73.65
2022-11-05T19:06:43.630Z,74.89
2022-11-05T19:09:10.364Z,73.71
2022-11-05T19:11:36.989Z,75.23
2022-11-05T19:14:03.608Z,75.69
2022-11-05T19:16:30.352Z,74.89
2022-11-05T19:19:00.993Z,74.87
2022-11-05T19:21:27.754Z,75.34
2022-11-05T19:23:55.778Z,74.25
2022-11-05T19:26:28.372Z,74.56
2022-11-05T19:28:57.475Z,74.65
2022-11-05T19:31:24.182Z,73.93
2022-11-05T19:33:51.025Z,73.42
2022-11-05T19:36:18.001Z,72.89
2022-11-05T19:38:44.635Z,72.93
2022-11-05T19:41:12.417Z,73.26
2022-11-05T19:43:39.032Z,74.33
2022-11-05T19:46:10.185Z,73.91
2022-11-05T19:48:37.021Z,75.52
2022-11-05T19:51:12.876Z,75.85
2022-11-05T19:53:39.585Z,75.63
2022-11-05T19:56:14.585Z,75.54
2022-11-05T19:58:41.233Z,75.42
2022-11-05T20:01:08.079Z,75.24
2022-11-05T20:03:34.752Z,76.32
2022-11-05T20:06:02.589Z,76.25
2022-11-05T20:08:29.476Z,76.45
2022-11-05T20:10:56.246Z,76.89
2022-11-05T20:13:23.179Z,75.48
2022-11-05T20:15:49.780Z,75.17
2022-11-05T20:18:16.417Z,75.55
2022-11-05T20:20:43.821Z,74.95
2022-11-05T20:23:10.445Z,76.07
2022-11-05T20:25:37.153Z,76.93
2022-11-05T20:28:03.843Z,75.61
2022-11-05T20:30:30.486Z,75.34
2022-11-05T20:32:57.497Z,75.51
2022-11-05T20:35:24.261Z,76.55
2022-11-05T20:37:53.971Z,76.39
2022-11-05T20:40:21.038Z,75.91
2022-11-05T20:42:53.336Z,75.96
2022-11-05T20:45:19.958Z,76.44
2022-11-05T20:47:46.627Z,76.89
2022-11-05T20:50:13.267Z,76.72
2022-11-05T20:52:39.893Z,76.32
2022-11-05T20:55:06.773Z,75.22
2022-11-05T20:57:33.386Z,75.10
2022-11-05T20:59:59.993Z,74.68
2022-11-05T21:02:26.735Z,74.55
2022-11-05T21:04:53.428Z,73.50
2022-11-05T21:07:20.048Z,73.60
2022-11-05T21:09:46.681Z,73.98
2022-11-05T21:12:13.322Z,72.44
2022-11-05T21:14:41.291Z,72.89
2022-11-05T21:17:08.770Z,72.92
2022-11-05T21:19:35.736Z,73.82
2022-11-05T21:22:02.754Z,75.23
2022-11-05T21:24:29.416Z,75.05
2022-11-05T21:26:56.035Z,74.17
2022-11-05T21:29:22.657Z,73.85
2022-11-05T21:31:49.285Z,74.18
2022-11-05T21:34:16.330Z,75.18
2022-11-05T21:36:42.973Z,75.67
2022-11-05T21:39:13.442Z,74.66
2022-11-05T21:41:40.522Z,74.09
2022-11-05T21:44:07.132Z,73.95
2022-11-05T21:46:33.744Z,73.92
2022-11-05T21:49:00.356Z,73.96
2022-11-05T21:51:26.974Z,75.07
2022-11-05T21:53:53.585Z,74.13
2022-11-05T21:56:21.023Z,73.52
2022-11-05T21:58:47.638Z,73.54
2022-11-05T22:01:14.321Z,74.03
2022-11-05T22:03:40.962Z,73.37
2022-11-05T22:06:07.577Z,74.76
2022-11-05T22:08:34.195Z,75.44
2022-11-05T22:11:03.643Z,76.34
2022-11-05T22:13:30.260Z,75.88
2022-11-05T22:15:56.925Z,75.82
2022-11-05T22:18:23.605Z,76.34
2022-11-05T22:20:50.206Z,76.65
2022-11-05T22:23:16.804Z,75.82
2022-11-05T22:25:43.407Z,74.86
2022-11-05T22:28:10.279Z,74.08
2022-11-05T22:30:37.101Z,73.78
2022-11-05T22:33:03.705Z,74.65
2022-11-05T22:35:30.317Z,75.60
2022-11-05T22:37:56.926Z,77.66
2022-11-05T22:40:24.236Z,76.31
2022-11-05T22:42:50.951Z,75.27
2022-11-05T22:45:17.585Z,74.42
2022-11-05T22:47:44.199Z,73.32
2022-11-05T22:50:10.813Z,73.51
2022-11-05T22:52:37.436Z,74.03
2022-11-05T22:55:04.231Z,74.12
2022-11-05T22:57:30.839Z,74.49
2022-11-05T22:59:57.449Z,74.85
2022-11-05T23:02:24.343Z,75.39
2022-11-05T23:04:51.686Z,74.74
2022-11-05T23:07:21.963Z,76.61
2022-11-05T23:09:51.279Z,77.75
2022-11-05T23:12:43.820Z,78.34
2022-11-05T23:15:10.502Z,78.13
2022-11-05T23:17:37.119Z,77.95
2022-11-05T23:20:05.010Z,78.92
2022-11-05T23:22:31.648Z,79.34
2022-11-05T23:24:58.266Z,79.46
2022-11-05T23:27:24.881Z,78.99
2022-11-05T23:29:51.506Z,78.33
2022-11-05T23:32:18.108Z,79.28
2022-11-05T23:34:44.722Z,78.34
2022-11-05T23:37:11.342Z,78.40
2022-11-05T23:39:42.458Z,77.30
2022-11-05T23:42:09.618Z,77.78
2022-11-05T23:44:36.241Z,77.85
2022-11-05T23:47:02.859Z,76.43
2022-11-05T23:49:29.470Z,76.95
2022-11-05T23:51:56.087Z,75.94
2022-11-05T23:54:22.707Z,75.73
2022-11-05T23:56:49.317Z,74.77
2022-11-05T23:59:15.923Z,74.96
